sensor_id;sensor_type;location;lat;lon;timestamp;P1;durP1;ratioP1;P2;durP2;ratioP2
42110;SDS011;27766;52.174;5.456;2023-05-07T00:02:06;9.82;;;7.35;;
42110;SDS011;27766;52.174;5.456;2023-05-07T00:04:34;9.10;;;6.38;;
42110;SDS011;27766;52.174;5.456;2023-05-07T00:07:04;7.78;;;6.25;;
42110;SDS011;27766;52.174;5.456;2023-05-07T00:09:32;7.97;;;6.03;;
42110;SDS011;27766;52.174;5.456;2023-05-07T00:12:00;8.98;;;6.20;;
42110;SDS011;27766;52.174;5.456;2023-05-07T00:14:27;7.00;;;5.53;;
42110;SDS011;27766;52.174;5.456;2023-05-07T00:16:55;9.57;;;6.85;;
42110;SDS011;27766;52.174;5.456;2023-05-07T00:19:22;7.28;;;6.20;;
42110;SDS011;27766;52.174;5.456;2023-05-07T00:21:49;12.68;;;6.57;;
42110;SDS011;27766;52.174;5.456;2023-05-07T00:24:17;8.48;;;6.65;;
42110;SDS011;27766;52.174;5.456;2023-05-07T00:26:44;10.60;;;6.40;;
42110;SDS011;27766;52.174;5.456;2023-05-07T00:29:11;8.02;;;6.95;;
42110;SDS011;27766;52.174;5.456;2023-05-07T00:31:38;10.98;;;7.22;;
42110;SDS011;27766;52.174;5.456;2023-05-07T00:34:05;8.38;;;6.80;;
42110;SDS011;27766;52.174;5.456;2023-05-07T00:36:32;8.18;;;6.20;;
42110;SDS011;27766;52.174;5.456;2023-05-07T00:39:00;8.35;;;6.25;;
42110;SDS011;27766;52.174;5.456;2023-05-07T00:41:30;8.60;;;6.63;;
42110;SDS011;27766;52.174;5.456;2023-05-07T00:43:59;8.70;;;6.45;;
42110;SDS011;27766;52.174;5.456;2023-05-07T00:46:28;7.25;;;6.20;;
42110;SDS011;27766;52.174;5.456;2023-05-07T00:48:57;7.95;;;6.35;;
42110;SDS011;27766;52.174;5.456;2023-05-07T00:51:25;10.65;;;7.03;;
42110;SDS011;27766;52.174;5.456;2023-05-07T00:53:54;8.23;;;7.07;;
42110;SDS011;27766;52.174;5.456;2023-05-07T00:56:21;8.02;;;6.55;;
42110;SDS011;27766;52.174;5.456;2023-05-07T00:58:49;13.57;;;6.70;;
42110;SDS011;27766;52.174;5.456;2023-05-07T01:01:17;9.80;;;6.90;;
42110;SDS011;27766;52.174;5.456;2023-05-07T01:03:44;11.15;;;7.90;;
42110;SDS011;27766;52.174;5.456;2023-05-07T01:06:12;8.40;;;7.13;;
42110;SDS011;27766;52.174;5.456;2023-05-07T01:08:44;12.40;;;6.15;;
42110;SDS011;27766;52.174;5.456;2023-05-07T01:11:11;6.82;;;6.13;;
42110;SDS011;27766;52.174;5.456;2023-05-07T01:13:39;8.15;;;6.53;;
42110;SDS011;27766;52.174;5.456;2023-05-07T01:16:08;7.93;;;6.57;;
42110;SDS011;27766;52.174;5.456;2023-05-07T01:18:36;8.48;;;6.85;;
42110;SDS011;27766;52.174;5.456;2023-05-07T01:21:04;8.85;;;7.22;;
42110;SDS011;27766;52.174;5.456;2023-05-07T01:23:32;8.45;;;6.53;;
42110;SDS011;27766;52.174;5.456;2023-05-07T01:26:00;8.45;;;6.95;;
42110;SDS011;27766;52.174;5.456;2023-05-07T01:28:27;7.13;;;6.30;;
42110;SDS011;27766;52.174;5.456;2023-05-07T01:30:55;8.68;;;7.60;;
42110;SDS011;27766;52.174;5.456;2023-05-07T01:33:29;8.85;;;6.55;;
42110;SDS011;27766;52.174;5.456;2023-05-07T01:35:59;7.38;;;6.60;;
42110;SDS011;27766;52.174;5.456;2023-05-07T01:38:28;11.25;;;6.68;;
42110;SDS011;27766;52.174;5.456;2023-05-07T01:40:56;7.60;;;6.80;;
42110;SDS011;27766;52.174;5.456;2023-05-07T01:43:24;8.18;;;7.38;;
42110;SDS011;27766;52.174;5.456;2023-05-07T01:45:52;8.65;;;7.28;;
42110;SDS011;27766;52.174;5.456;2023-05-07T01:48:20;9.20;;;7.22;;
42110;SDS011;27766;52.174;5.456;2023-05-07T01:50:47;10.20;;;7.05;;
42110;SDS011;27766;52.174;5.456;2023-05-07T01:53:15;9.13;;;7.57;;
42110;SDS011;27766;52.174;5.456;2023-05-07T01:55:43;10.35;;;7.35;;
42110;SDS011;27766;52.174;5.456;2023-05-07T01:58:10;7.82;;;6.60;;
42110;SDS011;27766;52.174;5.456;2023-05-07T02:00:37;7.25;;;6.47;;
42110;SDS011;27766;52.174;5.456;2023-05-07T02:03:04;8.07;;;6.75;;
42110;SDS011;27766;52.174;5.456;2023-05-07T02:05:32;9.07;;;7.30;;
42110;SDS011;27766;52.174;5.456;2023-05-07T02:07:59;10.27;;;7.78;;
42110;SDS011;27766;52.174;5.456;2023-05-07T02:10:26;7.70;;;6.90;;
42110;SDS011;27766;52.174;5.456;2023-05-07T02:12:53;7.68;;;6.85;;
42110;SDS011;27766;52.174;5.456;2023-05-07T02:15:20;10.07;;;7.28;;
42110;SDS011;27766;52.174;5.456;2023-05-07T02:18:04;8.50;;;6.82;;
42110;SDS011;27766;52.174;5.456;2023-05-07T02:20:33;8.55;;;7.32;;
42110;SDS011;27766;52.174;5.456;2023-05-07T02:23:00;13.35;;;7.82;;
42110;SDS011;27766;52.174;5.456;2023-05-07T02:25:27;9.05;;;7.40;;
42110;SDS011;27766;52.174;5.456;2023-05-07T02:27:55;12.38;;;7.40;;
42110;SDS011;27766;52.174;5.456;2023-05-07T02:30:22;8.80;;;7.18;;
42110;SDS011;27766;52.174;5.456;2023-05-07T02:32:51;13.38;;;8.73;;
42110;SDS011;27766;52.174;5.456;2023-05-07T02:35:19;9.10;;;8.10;;
42110;SDS011;27766;52.174;5.456;2023-05-07T02:37:46;12.90;;;8.45;;
42110;SDS011;27766;52.174;5.456;2023-05-07T02:40:13;9.95;;;8.57;;
42110;SDS011;27766;52.174;5.456;2023-05-07T02:42:40;12.63;;;8.85;;
42110;SDS011;27766;52.174;5.456;2023-05-07T02:45:07;12.43;;;8.57;;
42110;SDS011;27766;52.174;5.456;2023-05-07T02:47:35;10.98;;;8.65;;
42110;SDS011;27766;52.174;5.456;2023-05-07T02:50:02;9.88;;;8.20;;
42110;SDS011;27766;52.174;5.456;2023-05-07T02:52:30;10.35;;;8.77;;
42110;SDS011;27766;52.174;5.456;2023-05-07T02:54:57;13.05;;;8.85;;
42110;SDS011;27766;52.174;5.456;2023-05-07T02:57:24;12.77;;;9.68;;
42110;SDS011;27766;52.174;5.456;2023-05-07T02:59:51;13.90;;;9.65;;
42110;SDS011;27766;52.174;5.456;2023-05-07T03:02:18;14.60;;;9.88;;
42110;SDS011;27766;52.174;5.456;2023-05-07T03:04:46;10.32;;;8.80;;
42110;SDS011;27766;52.174;5.456;2023-05-07T03:07:13;13.32;;;10.02;;
42110;SDS011;27766;52.174;5.456;2023-05-07T03:09:41;10.88;;;9.45;;
42110;SDS011;27766;52.174;5.456;2023-05-07T03:12:08;12.98;;;9.98;;
42110;SDS011;27766;52.174;5.456;2023-05-07T03:14:35;12.23;;;9.70;;
42110;SDS011;27766;52.174;5.456;2023-05-07T03:17:02;12.63;;;9.77;;
42110;SDS011;27766;52.174;5.456;2023-05-07T03:19:29;11.25;;;8.98;;
42110;SDS011;27766;52.174;5.456;2023-05-07T03:21:57;11.73;;;9.68;;
42110;SDS011;27766;52.174;5.456;2023-05-07T03:24:24;13.45;;;10.73;;
42110;SDS011;27766;52.174;5.456;2023-05-07T03:26:51;10.63;;;9.52;;
42110;SDS011;27766;52.174;5.456;2023-05-07T03:29:18;12.00;;;10.73;;
42110;SDS011;27766;52.174;5.456;2023-05-07T03:31:46;13.82;;;10.45;;
42110;SDS011;27766;52.174;5.456;2023-05-07T03:34:13;15.90;;;10.70;;
42110;SDS011;27766;52.174;5.456;2023-05-07T03:36:40;13.27;;;9.80;;
42110;SDS011;27766;52.174;5.456;2023-05-07T03:39:08;14.57;;;10.88;;
42110;SDS011;27766;52.174;5.456;2023-05-07T03:41:35;11.30;;;10.20;;
42110;SDS011;27766;52.174;5.456;2023-05-07T03:44:02;14.52;;;10.48;;
42110;SDS011;27766;52.174;5.456;2023-05-07T03:46:29;12.48;;;10.93;;
42110;SDS011;27766;52.174;5.456;2023-05-07T03:48:56;11.23;;;10.02;;
42110;SDS011;27766;52.174;5.456;2023-05-07T03:51:23;13.23;;;10.52;;
42110;SDS011;27766;52.174;5.456;2023-05-07T03:53:51;14.77;;;11.30;;
42110;SDS011;27766;52.174;5.456;2023-05-07T03:56:20;14.50;;;10.93;;
42110;SDS011;27766;52.174;5.456;2023-05-07T03:58:47;13.07;;;11.20;;
42110;SDS011;27766;52.174;5.456;2023-05-07T04:01:14;13.45;;;11.65;;
42110;SDS011;27766;52.174;5.456;2023-05-07T04:03:41;17.20;;;11.52;;
42110;SDS011;27766;52.174;5.456;2023-05-07T04:06:09;17.08;;;12.20;;
42110;SDS011;27766;52.174;5.456;2023-05-07T04:08:36;15.52;;;11.85;;
42110;SDS011;27766;52.174;5.456;2023-05-07T04:11:03;14.27;;;12.18;;
42110;SDS011;27766;52.174;5.456;2023-05-07T04:13:30;19.10;;;12.18;;
42110;SDS011;27766;52.174;5.456;2023-05-07T04:15:57;17.75;;;12.23;;
42110;SDS011;27766;52.174;5.456;2023-05-07T04:18:25;18.35;;;12.38;;
42110;SDS011;27766;52.174;5.456;2023-05-07T04:20:52;15.98;;;12.18;;
42110;SDS011;27766;52.174;5.456;2023-05-07T04:23:19;15.57;;;12.00;;
42110;SDS011;27766;52.174;5.456;2023-05-07T04:25:46;18.52;;;12.07;;
42110;SDS011;27766;52.174;5.456;2023-05-07T04:28:13;14.20;;;11.52;;
42110;SDS011;27766;52.174;5.456;2023-05-07T04:30:40;14.57;;;11.57;;
42110;SDS011;27766;52.174;5.456;2023-05-07T04:33:08;16.70;;;12.25;;
42110;SDS011;27766;52.174;5.456;2023-05-07T04:35:35;15.27;;;11.80;;
42110;SDS011;27766;52.174;5.456;2023-05-07T04:38:02;17.33;;;12.07;;
42110;SDS011;27766;52.174;5.456;2023-05-07T04:40:30;14.95;;;12.07;;
42110;SDS011;27766;52.174;5.456;2023-05-07T04:42:57;16.35;;;12.27;;
42110;SDS011;27766;52.174;5.456;2023-05-07T04:45:24;13.70;;;11.52;;
42110;SDS011;27766;52.174;5.456;2023-05-07T04:47:51;14.95;;;11.70;;
42110;SDS011;27766;52.174;5.456;2023-05-07T04:50:19;15.60;;;12.35;;
42110;SDS011;27766;52.174;5.456;2023-05-07T04:52:46;13.85;;;11.15;;
42110;SDS011;27766;52.174;5.456;2023-05-07T04:55:13;16.55;;;12.13;;
42110;SDS011;27766;52.174;5.456;2023-05-07T04:57:41;14.00;;;11.80;;
42110;SDS011;27766;52.174;5.456;2023-05-07T05:00:08;17.90;;;12.30;;
42110;SDS011;27766;52.174;5.456;2023-05-07T05:02:36;15.52;;;11.80;;
42110;SDS011;27766;52.174;5.456;2023-05-07T05:05:04;14.27;;;11.05;;
42110;SDS011;27766;52.174;5.456;2023-05-07T05:07:31;16.17;;;12.27;;
42110;SDS011;27766;52.174;5.456;2023-05-07T05:09:58;14.80;;;11.70;;
42110;SDS011;27766;52.174;5.456;2023-05-07T05:12:26;19.33;;;12.82;;
42110;SDS011;27766;52.174;5.456;2023-05-07T05:14:53;15.10;;;13.50;;
42110;SDS011;27766;52.174;5.456;2023-05-07T05:17:21;18.75;;;13.25;;
42110;SDS011;27766;52.174;5.456;2023-05-07T05:19:48;14.85;;;12.77;;
42110;SDS011;27766;52.174;5.456;2023-05-07T05:22:15;16.55;;;14.05;;
42110;SDS011;27766;52.174;5.456;2023-05-07T05:24:42;16.70;;;13.93;;
42110;SDS011;27766;52.174;5.456;2023-05-07T05:27:09;15.25;;;13.65;;
42110;SDS011;27766;52.174;5.456;2023-05-07T05:29:36;18.08;;;13.40;;
42110;SDS011;27766;52.174;5.456;2023-05-07T05:32:04;18.60;;;15.00;;
42110;SDS011;27766;52.174;5.456;2023-05-07T05:34:31;16.98;;;14.95;;
42110;SDS011;27766;52.174;5.456;2023-05-07T05:36:59;22.50;;;14.95;;
42110;SDS011;27766;52.174;5.456;2023-05-07T05:39:27;17.05;;;14.75;;
42110;SDS011;27766;52.174;5.456;2023-05-07T05:41:54;17.35;;;15.27;;
42110;SDS011;27766;52.174;5.456;2023-05-07T05:44:21;20.52;;;16.65;;
42110;SDS011;27766;52.174;5.456;2023-05-07T05:46:49;17.55;;;15.55;;
42110;SDS011;27766;52.174;5.456;2023-05-07T05:49:16;18.33;;;15.07;;
42110;SDS011;27766;52.174;5.456;2023-05-07T05:51:43;18.67;;;15.93;;
42110;SDS011;27766;52.174;5.456;2023-05-07T05:54:11;20.98;;;16.08;;
42110;SDS011;27766;52.174;5.456;2023-05-07T05:56:38;18.33;;;14.65;;
42110;SDS011;27766;52.174;5.456;2023-05-07T05:59:05;19.67;;;15.95;;
42110;SDS011;27766;52.174;5.456;2023-05-07T06:01:32;18.83;;;16.05;;
42110;SDS011;27766;52.174;5.456;2023-05-07T06:03:59;15.95;;;14.25;;
42110;SDS011;27766;52.174;5.456;2023-05-07T06:06:27;20.00;;;15.27;;
42110;SDS011;27766;52.174;5.456;2023-05-07T06:08:54;16.90;;;15.05;;
42110;SDS011;27766;52.174;5.456;2023-05-07T06:11:22;19.23;;;15.68;;
42110;SDS011;27766;52.174;5.456;2023-05-07T06:13:49;18.67;;;14.88;;
42110;SDS011;27766;52.174;5.456;2023-05-07T06:16:16;17.38;;;13.70;;
42110;SDS011;27766;52.174;5.456;2023-05-07T06:18:43;16.50;;;13.65;;
42110;SDS011;27766;52.174;5.456;2023-05-07T06:21:13;18.27;;;14.43;;
42110;SDS011;27766;52.174;5.456;2023-05-07T06:23:40;18.10;;;14.38;;
42110;SDS011;27766;52.174;5.456;2023-05-07T06:26:07;17.55;;;14.60;;
42110;SDS011;27766;52.174;5.456;2023-05-07T06:28:34;15.95;;;14.25;;
42110;SDS011;27766;52.174;5.456;2023-05-07T06:31:12;17.92;;;14.68;;
42110;SDS011;27766;52.174;5.456;2023-05-07T06:33:40;16.23;;;14.45;;
42110;SDS011;27766;52.174;5.456;2023-05-07T06:36:07;17.00;;;14.63;;
42110;SDS011;27766;52.174;5.456;2023-05-07T06:38:34;19.35;;;14.48;;
42110;SDS011;27766;52.174;5.456;2023-05-07T06:41:01;16.50;;;14.57;;
42110;SDS011;27766;52.174;5.456;2023-05-07T06:43:30;19.23;;;14.45;;
42110;SDS011;27766;52.174;5.456;2023-05-07T06:45:57;21.08;;;14.57;;
42110;SDS011;27766;52.174;5.456;2023-05-07T06:48:24;16.75;;;14.82;;
42110;SDS011;27766;52.174;5.456;2023-05-07T06:50:51;18.05;;;14.07;;
42110;SDS011;27766;52.174;5.456;2023-05-07T06:53:19;22.88;;;15.25;;
42110;SDS011;27766;52.174;5.456;2023-05-07T06:55:46;18.50;;;15.10;;
42110;SDS011;27766;52.174;5.456;2023-05-07T06:58:13;18.45;;;14.20;;
42110;SDS011;27766;52.174;5.456;2023-05-07T07:00:40;16.52;;;14.32;;
42110;SDS011;27766;52.174;5.456;2023-05-07T07:03:07;18.98;;;15.02;;
42110;SDS011;27766;52.174;5.456;2023-05-07T07:05:35;19.83;;;15.85;;
42110;SDS011;27766;52.174;5.456;2023-05-07T07:08:02;19.05;;;15.68;;
42110;SDS011;27766;52.174;5.456;2023-05-07T07:10:29;16.80;;;14.77;;
42110;SDS011;27766;52.174;5.456;2023-05-07T07:12:56;20.77;;;15.63;;
42110;SDS011;27766;52.174;5.456;2023-05-07T07:15:23;23.08;;;15.20;;
42110;SDS011;27766;52.174;5.456;2023-05-07T07:17:51;21.73;;;15.70;;
42110;SDS011;27766;52.174;5.456;2023-05-07T07:20:19;18.48;;;16.17;;
42110;SDS011;27766;52.174;5.456;2023-05-07T07:22:46;18.70;;;15.88;;
42110;SDS011;27766;52.174;5.456;2023-05-07T07:25:13;17.88;;;15.98;;
42110;SDS011;27766;52.174;5.456;2023-05-07T07:27:40;19.33;;;16.08;;
42110;SDS011;27766;52.174;5.456;2023-05-07T07:30:07;21.42;;;16.80;;
42110;SDS011;27766;52.174;5.456;2023-05-07T07:32:35;18.90;;;16.27;;
42110;SDS011;27766;52.174;5.456;2023-05-07T07:35:03;21.67;;;16.98;;
42110;SDS011;27766;52.174;5.456;2023-05-07T07:37:31;20.00;;;16.95;;
42110;SDS011;27766;52.174;5.456;2023-05-07T07:39:58;22.02;;;16.45;;
42110;SDS011;27766;52.174;5.456;2023-05-07T07:42:27;20.38;;;16.80;;
42110;SDS011;27766;52.174;5.456;2023-05-07T07:44:55;20.58;;;17.98;;
42110;SDS011;27766;52.174;5.456;2023-05-07T07:47:23;20.20;;;17.05;;
42110;SDS011;27766;52.174;5.456;2023-05-07T07:49:50;20.38;;;17.77;;
42110;SDS011;27766;52.174;5.456;2023-05-07T07:52:18;19.17;;;16.95;;
42110;SDS011;27766;52.174;5.456;2023-05-07T07:54:45;21.20;;;16.92;;
42110;SDS011;27766;52.174;5.456;2023-05-07T07:57:13;18.70;;;16.75;;
42110;SDS011;27766;52.174;5.456;2023-05-07T07:59:40;22.85;;;16.67;;
42110;SDS011;27766;52.174;5.456;2023-05-07T08:02:09;22.48;;;17.13;;
42110;SDS011;27766;52.174;5.456;2023-05-07T08:04:36;19.95;;;15.73;;
42110;SDS011;27766;52.174;5.456;2023-05-07T08:07:04;20.05;;;16.00;;
42110;SDS011;27766;52.174;5.456;2023-05-07T08:09:32;18.83;;;15.52;;
42110;SDS011;27766;52.174;5.456;2023-05-07T08:11:59;18.05;;;16.13;;
42110;SDS011;27766;52.174;5.456;2023-05-07T08:14:27;21.25;;;15.52;;
42110;SDS011;27766;52.174;5.456;2023-05-07T08:16:55;17.58;;;15.68;;
42110;SDS011;27766;52.174;5.456;2023-05-07T08:19:22;18.85;;;14.70;;
42110;SDS011;27766;52.174;5.456;2023-05-07T08:21:50;19.50;;;14.07;;
42110;SDS011;27766;52.174;5.456;2023-05-07T08:24:17;16.67;;;14.52;;
42110;SDS011;27766;52.174;5.456;2023-05-07T08:26:45;20.65;;;15.73;;
42110;SDS011;27766;52.174;5.456;2023-05-07T08:29:13;18.83;;;15.20;;
42110;SDS011;27766;52.174;5.456;2023-05-07T08:31:40;16.60;;;14.77;;
42110;SDS011;27766;52.174;5.456;2023-05-07T08:34:07;18.08;;;14.55;;
42110;SDS011;27766;52.174;5.456;2023-05-07T08:36:36;17.80;;;15.32;;
42110;SDS011;27766;52.174;5.456;2023-05-07T08:39:03;18.52;;;14.40;;
42110;SDS011;27766;52.174;5.456;2023-05-07T08:41:30;20.80;;;15.80;;
42110;SDS011;27766;52.174;5.456;2023-05-07T08:43:58;20.58;;;15.63;;
42110;SDS011;27766;52.174;5.456;2023-05-07T08:46:30;18.90;;;16.77;;
42110;SDS011;27766;52.174;5.456;2023-05-07T08:48:59;22.42;;;18.00;;
42110;SDS011;27766;52.174;5.456;2023-05-07T08:51:26;17.30;;;15.50;;
42110;SDS011;27766;52.174;5.456;2023-05-07T08:53:54;18.73;;;16.23;;
42110;SDS011;27766;52.174;5.456;2023-05-07T08:56:21;19.52;;;16.58;;
42110;SDS011;27766;52.174;5.456;2023-05-07T08:58:48;19.90;;;16.83;;
42110;SDS011;27766;52.174;5.456;2023-05-07T09:01:16;19.77;;;15.45;;
42110;SDS011;27766;52.174;5.456;2023-05-07T09:03:44;17.55;;;15.70;;
42110;SDS011;27766;52.174;5.456;2023-05-07T09:06:12;20.85;;;16.52;;
42110;SDS011;27766;52.174;5.456;2023-05-07T09:08:40;16.77;;;14.98;;
42110;SDS011;27766;52.174;5.456;2023-05-07T09:11:07;18.85;;;16.63;;
42110;SDS011;27766;52.174;5.456;2023-05-07T09:13:34;22.20;;;15.85;;
42110;SDS011;27766;52.174;5.456;2023-05-07T09:16:09;24.40;;;15.20;;
42110;SDS011;27766;52.174;5.456;2023-05-07T09:18:41;17.83;;;15.55;;
42110;SDS011;27766;52.174;5.456;2023-05-07T09:21:09;18.40;;;15.35;;
42110;SDS011;27766;52.174;5.456;2023-05-07T09:23:37;20.33;;;15.30;;
42110;SDS011;27766;52.174;5.456;2023-05-07T09:26:06;21.98;;;15.35;;
42110;SDS011;27766;52.174;5.456;2023-05-07T09:28:41;20.63;;;16.05;;
42110;SDS011;27766;52.174;5.456;2023-05-07T09:31:09;20.27;;;16.80;;
42110;SDS011;27766;52.174;5.456;2023-05-07T09:33:37;18.58;;;15.43;;
42110;SDS011;27766;52.174;5.456;2023-05-07T09:36:05;16.85;;;15.18;;
42110;SDS011;27766;52.174;5.456;2023-05-07T09:38:34;20.77;;;15.80;;
42110;SDS011;27766;52.174;5.456;2023-05-07T09:41:09;19.73;;;15.25;;
42110;SDS011;27766;52.174;5.456;2023-05-07T09:43:38;17.08;;;14.55;;
42110;SDS011;27766;52.174;5.456;2023-05-07T09:46:06;19.23;;;14.43;;
42110;SDS011;27766;52.174;5.456;2023-05-07T09:48:36;19.38;;;13.73;;
42110;SDS011;27766;52.174;5.456;2023-05-07T09:51:08;15.23;;;13.57;;
42110;SDS011;27766;52.174;5.456;2023-05-07T09:53:42;19.63;;;13.45;;
42110;SDS011;27766;52.174;5.456;2023-05-07T09:56:13;16.77;;;12.98;;
42110;SDS011;27766;52.174;5.456;2023-05-07T09:58:42;15.25;;;12.38;;
42110;SDS011;27766;52.174;5.456;2023-05-07T10:01:10;15.52;;;10.27;;
42110;SDS011;27766;52.174;5.456;2023-05-07T10:03:40;14.60;;;11.27;;
42110;SDS011;27766;52.174;5.456;2023-05-07T10:06:09;16.17;;;11.73;;
42110;SDS011;27766;52.174;5.456;2023-05-07T10:08:37;13.18;;;10.98;;
42110;SDS011;27766;52.174;5.456;2023-05-07T10:11:04;14.05;;;11.68;;
42110;SDS011;27766;52.174;5.456;2023-05-07T10:13:33;14.68;;;11.82;;
42110;SDS011;27766;52.174;5.456;2023-05-07T10:16:05;16.90;;;11.75;;
42110;SDS011;27766;52.174;5.456;2023-05-07T10:18:32;15.15;;;11.98;;
42110;SDS011;27766;52.174;5.456;2023-05-07T10:21:22;12.63;;;11.23;;
42110;SDS011;27766;52.174;5.456;2023-05-07T10:23:50;12.90;;;11.00;;
42110;SDS011;27766;52.174;5.456;2023-05-07T10:26:24;15.43;;;11.75;;
42110;SDS011;27766;52.174;5.456;2023-05-07T10:29:02;13.38;;;11.20;;
42110;SDS011;27766;52.174;5.456;2023-05-07T10:34:44;14.50;;;12.30;;
42110;SDS011;27766;52.174;5.456;2023-05-07T10:37:13;13.32;;;11.55;;
42110;SDS011;27766;52.174;5.456;2023-05-07T10:39:41;17.17;;;12.23;;
42110;SDS011;27766;52.174;5.456;2023-05-07T10:44:37;16.15;;;11.95;;
42110;SDS011;27766;52.174;5.456;2023-05-07T10:47:11;17.17;;;12.73;;
42110;SDS011;27766;52.174;5.456;2023-05-07T10:52:16;13.90;;;12.07;;
42110;SDS011;27766;52.174;5.456;2023-05-07T10:54:45;15.23;;;13.38;;
42110;SDS011;27766;52.174;5.456;2023-05-07T10:59:58;17.13;;;13.23;;
42110;SDS011;27766;52.174;5.456;2023-05-07T11:05:28;18.70;;;13.35;;
42110;SDS011;27766;52.174;5.456;2023-05-07T11:07:58;13.25;;;10.95;;
42110;SDS011;27766;52.174;5.456;2023-05-07T11:13:14;13.75;;;11.52;;
42110;SDS011;27766;52.174;5.456;2023-05-07T11:15:45;16.75;;;12.38;;
42110;SDS011;27766;52.174;5.456;2023-05-07T11:18:14;16.27;;;12.35;;
42110;SDS011;27766;52.174;5.456;2023-05-07T11:26:08;16.15;;;13.55;;
42110;SDS011;27766;52.174;5.456;2023-05-07T11:28:40;14.63;;;12.38;;
42110;SDS011;27766;52.174;5.456;2023-05-07T11:31:09;15.98;;;12.73;;
42110;SDS011;27766;52.174;5.456;2023-05-07T11:33:37;17.15;;;12.70;;
42110;SDS011;27766;52.174;5.456;2023-05-07T11:36:05;18.15;;;13.82;;
42110;SDS011;27766;52.174;5.456;2023-05-07T11:38:35;15.57;;;12.85;;
42110;SDS011;27766;52.174;5.456;2023-05-07T11:41:03;15.75;;;12.52;;
42110;SDS011;27766;52.174;5.456;2023-05-07T11:43:32;20.00;;;12.93;;
42110;SDS011;27766;52.174;5.456;2023-05-07T11:46:07;17.92;;;11.82;;
42110;SDS011;27766;52.174;5.456;2023-05-07T11:48:38;15.00;;;12.27;;
42110;SDS011;27766;52.174;5.456;2023-05-07T11:51:06;13.20;;;11.85;;
42110;SDS011;27766;52.174;5.456;2023-05-07T11:53:39;16.77;;;12.32;;
42110;SDS011;27766;52.174;5.456;2023-05-07T11:56:11;16.95;;;13.02;;
42110;SDS011;27766;52.174;5.456;2023-05-07T11:58:39;15.50;;;11.77;;
42110;SDS011;27766;52.174;5.456;2023-05-07T12:01:08;15.52;;;11.30;;
42110;SDS011;27766;52.174;5.456;2023-05-07T12:03:36;14.75;;;12.02;;
42110;SDS011;27766;52.174;5.456;2023-05-07T12:06:07;13.73;;;11.23;;
42110;SDS011;27766;52.174;5.456;2023-05-07T12:08:38;14.57;;;11.75;;
42110;SDS011;27766;52.174;5.456;2023-05-07T12:11:07;14.48;;;11.93;;
42110;SDS011;27766;52.174;5.456;2023-05-07T12:13:36;12.43;;;10.07;;
42110;SDS011;27766;52.174;5.456;2023-05-07T12:16:03;16.83;;;11.57;;
42110;SDS011;27766;52.174;5.456;2023-05-07T12:18:32;14.18;;;11.30;;
42110;SDS011;27766;52.174;5.456;2023-05-07T12:21:00;14.65;;;11.32;;
42110;SDS011;27766;52.174;5.456;2023-05-07T12:23:28;15.07;;;11.38;;
42110;SDS011;27766;52.174;5.456;2023-05-07T12:25:55;12.40;;;10.45;;
42110;SDS011;27766;52.174;5.456;2023-05-07T12:28:23;12.43;;;10.52;;
42110;SDS011;27766;52.174;5.456;2023-05-07T12:30:50;14.82;;;10.38;;
42110;SDS011;27766;52.174;5.456;2023-05-07T12:33:19;11.77;;;10.52;;
42110;SDS011;27766;52.174;5.456;2023-05-07T12:35:50;12.25;;;9.90;;
42110;SDS011;27766;52.174;5.456;2023-05-07T12:38:17;12.55;;;10.45;;
42110;SDS011;27766;52.174;5.456;2023-05-07T12:40:45;11.57;;;9.13;;
42110;SDS011;27766;52.174;5.456;2023-05-07T12:43:17;12.32;;;9.63;;
42110;SDS011;27766;52.174;5.456;2023-05-07T12:45:49;16.63;;;9.73;;
42110;SDS011;27766;52.174;5.456;2023-05-07T12:48:17;10.40;;;9.13;;
42110;SDS011;27766;52.174;5.456;2023-05-07T12:50:49;15.68;;;8.88;;
42110;SDS011;27766;52.174;5.456;2023-05-07T12:53:19;11.27;;;8.68;;
42110;SDS011;27766;52.174;5.456;2023-05-07T12:55:49;12.15;;;8.45;;
42110;SDS011;27766;52.174;5.456;2023-05-07T12:58:21;11.85;;;7.30;;
42110;SDS011;27766;52.174;5.456;2023-05-07T13:01:00;8.30;;;6.53;;
42110;SDS011;27766;52.174;5.456;2023-05-07T13:03:31;8.30;;;7.00;;
42110;SDS011;27766;52.174;5.456;2023-05-07T13:06:07;10.15;;;6.70;;
42110;SDS011;27766;52.174;5.456;2023-05-07T13:08:41;11.68;;;7.50;;
42110;SDS011;27766;52.174;5.456;2023-05-07T13:11:12;10.88;;;7.25;;
42110;SDS011;27766;52.174;5.456;2023-05-07T13:13:40;7.97;;;6.90;;
42110;SDS011;27766;52.174;5.456;2023-05-07T13:16:08;8.65;;;7.07;;
42110;SDS011;27766;52.174;5.456;2023-05-07T13:18:38;10.50;;;7.35;;
42110;SDS011;27766;52.174;5.456;2023-05-07T13:21:07;8.85;;;7.35;;
42110;SDS011;27766;52.174;5.456;2023-05-07T13:23:34;12.35;;;7.43;;
42110;SDS011;27766;52.174;5.456;2023-05-07T13:26:01;11.35;;;7.15;;
42110;SDS011;27766;52.174;5.456;2023-05-07T13:28:37;10.48;;;7.65;;
42110;SDS011;27766;52.174;5.456;2023-05-07T13:31:04;10.20;;;7.80;;
42110;SDS011;27766;52.174;5.456;2023-05-07T13:33:31;15.13;;;8.07;;
42110;SDS011;27766;52.174;5.456;2023-05-07T13:35:58;8.75;;;7.80;;
42110;SDS011;27766;52.174;5.456;2023-05-07T13:38:27;13.82;;;8.10;;
42110;SDS011;27766;52.174;5.456;2023-05-07T13:40:54;11.02;;;8.85;;
42110;SDS011;27766;52.174;5.456;2023-05-07T13:43:21;15.05;;;8.90;;
42110;SDS011;27766;52.174;5.456;2023-05-07T13:45:49;10.30;;;8.60;;
42110;SDS011;27766;52.174;5.456;2023-05-07T13:48:16;12.43;;;9.35;;
42110;SDS011;27766;52.174;5.456;2023-05-07T13:50:43;11.52;;;9.13;;
42110;SDS011;27766;52.174;5.456;2023-05-07T13:53:10;13.85;;;10.48;;
42110;SDS011;27766;52.174;5.456;2023-05-07T13:55:37;13.73;;;8.65;;
42110;SDS011;27766;52.174;5.456;2023-05-07T13:58:04;10.82;;;8.75;;
42110;SDS011;27766;52.174;5.456;2023-05-07T14:00:33;12.13;;;9.30;;
42110;SDS011;27766;52.174;5.456;2023-05-07T14:03:01;13.05;;;9.88;;
42110;SDS011;27766;52.174;5.456;2023-05-07T14:05:28;20.42;;;9.65;;
42110;SDS011;27766;52.174;5.456;2023-05-07T14:07:58;9.98;;;8.32;;
42110;SDS011;27766;52.174;5.456;2023-05-07T14:10:26;11.07;;;9.02;;
42110;SDS011;27766;52.174;5.456;2023-05-07T14:12:53;10.50;;;8.85;;
42110;SDS011;27766;52.174;5.456;2023-05-07T14:15:21;12.45;;;8.95;;
42110;SDS011;27766;52.174;5.456;2023-05-07T14:17:48;16.88;;;12.52;;
42110;SDS011;27766;52.174;5.456;2023-05-07T14:20:15;19.90;;;14.75;;
42110;SDS011;27766;52.174;5.456;2023-05-07T14:22:43;12.88;;;10.75;;
42110;SDS011;27766;52.174;5.456;2023-05-07T14:25:10;13.45;;;10.95;;
42110;SDS011;27766;52.174;5.456;2023-05-07T14:27:37;13.02;;;10.18;;
42110;SDS011;27766;52.174;5.456;2023-05-07T14:30:04;16.75;;;10.40;;
42110;SDS011;27766;52.174;5.456;2023-05-07T14:32:32;12.52;;;10.10;;
42110;SDS011;27766;52.174;5.456;2023-05-07T14:35:00;16.45;;;9.70;;
42110;SDS011;27766;52.174;5.456;2023-05-07T14:37:27;12.80;;;10.00;;
42110;SDS011;27766;52.174;5.456;2023-05-07T14:39:54;10.77;;;9.05;;
42110;SDS011;27766;52.174;5.456;2023-05-07T14:42:21;17.52;;;9.10;;
42110;SDS011;27766;52.174;5.456;2023-05-07T14:44:48;14.00;;;9.38;;
42110;SDS011;27766;52.174;5.456;2023-05-07T14:47:16;13.40;;;10.20;;
42110;SDS011;27766;52.174;5.456;2023-05-07T14:49:45;12.90;;;9.75;;
42110;SDS011;27766;52.174;5.456;2023-05-07T14:52:12;12.73;;;9.70;;
42110;SDS011;27766;52.174;5.456;2023-05-07T14:54:39;13.63;;;10.13;;
42110;SDS011;27766;52.174;5.456;2023-05-07T14:57:08;15.05;;;9.77;;